createdAt,value
2023-04-28T00:00:11.860Z,20.20
2023-04-28T00:02:40.193Z,19.80
2023-04-28T00:05:09.493Z,20.30
2023-04-28T00:07:37.901Z,20.60
2023-04-28T00:10:06.846Z,20.70
2023-04-28T00:12:35.024Z,20.90
2023-04-28T00:15:05.002Z,20.90
2023-04-28T00:17:34.149Z,21.00
2023-04-28T00:20:02.415Z,21.10
2023-04-28T00:22:31.261Z,21.10
2023-04-28T00:24:59.571Z,21.20
2023-04-28T00:27:27.943Z,21.20
2023-04-28T00:29:56.270Z,21.30
2023-04-28T00:32:25.964Z,21.20
2023-04-28T00:34:54.153Z,21.20
2023-04-28T00:37:22.443Z,20.50
2023-04-28T00:39:55.297Z,20.80
2023-04-28T00:42:23.601Z,21.00
2023-04-28T00:44:51.798Z,21.00
2023-04-28T00:47:20.277Z,21.00
2023-04-28T00:49:50.574Z,20.60
2023-04-28T00:52:18.710Z,20.50
2023-04-28T00:54:48.599Z,20.40
2023-04-28T00:57:16.750Z,20.50
2023-04-28T00:59:44.986Z,20.40
2023-04-28T01:02:17.366Z,20.70
2023-04-28T01:04:47.116Z,20.80
2023-04-28T01:07:18.073Z,20.90
2023-04-28T01:09:47.842Z,20.90
2023-04-28T01:12:19.038Z,21.00
2023-04-28T01:14:51.162Z,21.00
2023-04-28T01:17:20.050Z,21.10
2023-04-28T01:19:48.673Z,21.00
2023-04-28T01:22:18.340Z,20.70
2023-04-28T01:24:49.153Z,20.90
2023-04-28T01:27:17.578Z,20.90
2023-04-28T01:29:45.999Z,21.00
2023-04-28T01:32:14.359Z,21.10
2023-04-28T01:34:42.566Z,21.10
2023-04-28T01:37:10.771Z,20.90
2023-04-28T01:39:38.937Z,20.70
2023-04-28T01:42:08.639Z,20.70
2023-04-28T01:44:36.829Z,20.80
2023-04-28T01:47:05.095Z,20.90
2023-04-28T01:49:36.464Z,20.90
2023-04-28T01:52:04.806Z,20.80
2023-04-28T01:54:33.430Z,20.70
2023-04-28T01:57:02.420Z,21.00
2023-04-28T01:59:32.236Z,21.00
2023-04-28T02:02:00.474Z,21.00
2023-04-28T02:04:28.878Z,21.10
2023-04-28T02:06:57.125Z,21.20
2023-04-28T02:09:25.466Z,21.20
2023-04-28T02:11:53.641Z,20.90
2023-04-28T02:14:23.568Z,21.00
2023-04-28T02:16:53.513Z,21.10
2023-04-28T02:19:21.967Z,21.00
2023-04-28T02:21:50.119Z,21.00
2023-04-28T02:24:18.545Z,20.90
2023-04-28T02:26:46.929Z,20.80
2023-04-28T02:29:16.339Z,20.90
2023-04-28T02:31:44.579Z,20.90
2023-04-28T02:34:15.787Z,20.80
2023-04-28T02:36:44.130Z,20.20
2023-04-28T02:39:12.439Z,20.00
2023-04-28T02:41:40.609Z,20.20
2023-04-28T02:44:08.818Z,20.40
2023-04-28T02:46:37.051Z,20.50
2023-04-28T02:49:08.455Z,20.30
2023-04-28T02:51:37.987Z,20.10
2023-04-28T02:54:06.245Z,20.10
2023-04-28T02:56:35.013Z,20.20
2023-04-28T02:59:04.350Z,20.10
2023-04-28T03:01:32.578Z,20.20
2023-04-28T03:04:00.947Z,20.40
2023-04-28T03:06:29.377Z,20.30
2023-04-28T03:08:59.876Z,20.40
2023-04-28T03:11:28.629Z,20.50
2023-04-28T03:13:56.800Z,20.50
2023-04-28T03:16:25.054Z,20.60
2023-04-28T03:18:53.339Z,20.70
2023-04-28T03:21:21.569Z,20.60
2023-04-28T03:23:49.720Z,20.50
2023-04-28T03:26:19.307Z,20.60
2023-04-28T03:28:48.990Z,20.50
2023-04-28T03:31:17.190Z,20.60
2023-04-28T03:33:47.134Z,20.50
2023-04-28T03:36:17.881Z,20.00
2023-04-28T03:38:49.253Z,20.00
2023-04-28T03:41:19.093Z,20.10
2023-04-28T03:44:08.837Z,20.00
2023-04-28T03:46:46.428Z,20.00
2023-04-28T03:49:14.715Z,20.00
2023-04-28T03:51:43.552Z,19.70
2023-04-28T03:54:12.414Z,19.70
2023-04-28T03:56:41.968Z,19.70
2023-04-28T03:59:11.751Z,19.60
2023-04-28T04:01:41.623Z,19.80
2023-04-28T04:04:09.977Z,19.90
2023-04-28T04:06:38.530Z,19.90
2023-04-28T04:09:07.200Z,19.90
2023-04-28T04:11:35.438Z,19.90
2023-04-28T04:14:06.145Z,19.90
2023-04-28T04:16:34.439Z,19.90
2023-04-28T04:19:02.853Z,19.90
2023-04-28T04:21:37.359Z,20.00
2023-04-28T04:24:06.966Z,20.00
2023-04-28T04:26:35.216Z,20.20
2023-04-28T04:29:11.677Z,20.30
2023-04-28T04:31:40.081Z,20.50
2023-04-28T04:34:08.318Z,20.70
2023-04-28T04:36:36.745Z,20.80
2023-04-28T04:39:05.251Z,20.70
2023-04-28T04:41:33.657Z,20.90
2023-04-28T04:44:20.226Z,21.10
2023-04-28T04:46:50.995Z,21.00
2023-04-28T04:49:23.312Z,21.00
2023-04-28T04:51:52.970Z,21.10
2023-04-28T04:54:21.221Z,21.00
2023-04-28T04:56:49.538Z,21.20
2023-04-28T04:59:28.142Z,21.30
2023-04-28T05:02:02.939Z,21.40
2023-04-28T05:04:31.385Z,21.70
2023-04-28T05:07:02.383Z,22.10
2023-04-28T05:09:32.069Z,22.50
2023-04-28T05:12:01.642Z,22.80
2023-04-28T05:14:32.367Z,23.10
2023-04-28T05:17:00.716Z,23.40
2023-04-28T05:19:34.846Z,23.70
2023-04-28T05:22:03.412Z,24.00
2023-04-28T05:24:32.915Z,24.30
2023-04-28T05:27:01.646Z,24.50
2023-04-28T05:29:29.982Z,24.60
2023-04-28T05:31:59.577Z,24.90
2023-04-28T05:34:27.860Z,24.90
2023-04-28T05:36:56.432Z,25.00
2023-04-28T05:39:27.635Z,25.10
2023-04-28T05:41:58.722Z,25.20
2023-04-28T05:44:26.969Z,25.10
2023-04-28T05:46:55.281Z,25.20
2023-04-28T05:49:28.715Z,25.30
2023-04-28T05:51:56.923Z,25.30
2023-04-28T05:54:25.601Z,25.50
2023-04-28T05:56:56.052Z,25.50
2023-04-28T05:59:25.454Z,25.50
2023-04-28T06:01:53.712Z,25.50
2023-04-28T06:04:22.347Z,25.60
2023-04-28T06:06:53.223Z,25.60
2023-04-28T06:09:22.366Z,25.70
2023-04-28T06:11:50.751Z,25.70
2023-04-28T06:14:19.482Z,25.80
2023-04-28T06:16:47.852Z,25.80
2023-04-28T06:19:18.809Z,25.30
2023-04-28T06:21:50.426Z,25.70
2023-04-28T06:24:19.949Z,25.80
2023-04-28T06:26:49.113Z,25.90
2023-04-28T06:29:17.288Z,25.80
2023-04-28T06:31:48.314Z,26.00
2023-04-28T06:34:16.704Z,26.00
2023-04-28T06:36:45.026Z,26.00
2023-04-28T06:39:13.325Z,26.00
2023-04-28T06:41:43.186Z,26.20
2023-04-28T06:44:12.473Z,26.30
2023-04-28T06:46:40.933Z,26.30
2023-04-28T06:49:11.249Z,26.50
2023-04-28T06:51:39.402Z,26.60
2023-04-28T06:54:07.664Z,26.60
2023-04-28T06:56:37.050Z,26.70
2023-04-28T06:59:08.194Z,26.70
2023-04-28T07:01:36.979Z,26.50
2023-04-28T07:04:08.056Z,26.10
2023-04-28T07:06:36.355Z,26.50
2023-04-28T07:09:04.816Z,26.70
2023-04-28T07:11:33.388Z,26.60
2023-04-28T07:14:01.656Z,26.90
2023-04-28T07:16:31.495Z,27.00
2023-04-28T07:18:59.887Z,27.00
2023-04-28T07:21:28.151Z,27.10
2023-04-28T07:23:57.009Z,27.10
2023-04-28T07:26:25.660Z,27.10
2023-04-28T07:28:53.808Z,26.80
2023-04-28T07:31:22.033Z,26.80
2023-04-28T07:33:51.623Z,26.30
2023-04-28T07:36:22.785Z,26.30
2023-04-28T07:38:51.053Z,26.70
2023-04-28T07:41:19.738Z,26.90
2023-04-28T07:43:48.296Z,27.10
2023-04-28T07:46:16.638Z,27.40
2023-04-28T07:48:44.860Z,27.50
2023-04-28T07:51:14.396Z,27.30
2023-04-28T07:53:42.624Z,27.50
2023-04-28T07:56:12.124Z,27.60
2023-04-28T07:58:40.432Z,27.60
2023-04-28T08:01:08.754Z,27.50
2023-04-28T08:03:37.215Z,27.50
2023-04-28T08:06:05.956Z,27.60
2023-04-28T08:08:35.978Z,27.30
2023-04-28T08:11:04.220Z,26.60
2023-04-28T08:13:35.449Z,26.10
2023-04-28T08:16:03.647Z,26.20
2023-04-28T08:18:31.897Z,26.10
2023-04-28T08:21:02.274Z,26.10
2023-04-28T08:23:31.925Z,26.00
2023-04-28T08:26:01.570Z,26.50
2023-04-28T08:28:29.796Z,26.90
2023-04-28T08:30:58.573Z,26.50
2023-04-28T08:33:26.784Z,26.30
2023-04-28T08:35:56.174Z,26.40
2023-04-28T08:38:25.373Z,26.00
2023-04-28T08:40:53.571Z,25.30
2023-04-28T08:43:24.253Z,25.60
2023-04-28T08:45:52.645Z,25.70
2023-04-28T08:48:22.077Z,26.30
2023-04-28T08:50:52.577Z,26.10
2023-04-28T08:53:26.209Z,26.50
2023-04-28T08:55:56.819Z,26.90
2023-04-28T08:58:27.715Z,26.60
2023-04-28T09:00:55.993Z,25.70
2023-04-28T09:03:24.541Z,25.80
2023-04-28T09:05:52.894Z,25.40
2023-04-28T09:08:21.144Z,25.30
2023-04-28T09:10:49.369Z,25.70
2023-04-28T09:13:27.564Z,25.70
2023-04-28T09:16:02.812Z,25.80
2023-04-28T09:18:32.666Z,25.60
2023-04-28T09:21:08.251Z,25.60
2023-04-28T09:23:47.306Z,25.20
2023-04-28T09:26:15.546Z,25.30
2023-04-28T09:28:46.156Z,24.90
2023-04-28T09:31:25.261Z,24.60
2023-04-28T09:34:00.160Z,24.90
2023-04-28T09:36:30.625Z,25.20
2023-04-28T09:39:00.064Z,24.80
2023-04-28T09:41:38.262Z,25.50
2023-04-28T09:44:21.322Z,26.00
2023-04-28T09:46:49.644Z,26.60
2023-04-28T09:49:17.837Z,26.80
2023-04-28T09:51:46.160Z,27.10
2023-04-28T09:54:14.928Z,27.60
2023-04-28T09:56:45.133Z,27.70
2023-04-28T09:59:14.316Z,27.00
2023-04-28T10:01:45.419Z,27.50
2023-04-28T10:04:14.276Z,27.00
2023-04-28T10:06:42.948Z,27.40
2023-04-28T10:09:12.438Z,27.40
2023-04-28T10:11:40.699Z,28.10
2023-04-28T10:14:09.021Z,28.50
2023-04-28T10:16:37.509Z,28.70
2023-04-28T10:19:07.842Z,28.80
2023-04-28T10:21:42.399Z,29.20
2023-04-28T10:24:15.000Z,29.50
2023-04-28T10:27:10.657Z,29.70
2023-04-28T10:29:39.064Z,29.70
2023-04-28T10:32:25.983Z,29.90
2023-04-28T10:35:42.917Z,29.30
2023-04-28T10:38:13.629Z,29.10
2023-04-28T10:40:43.242Z,28.80
2023-04-28T10:43:13.101Z,28.30
2023-04-28T10:46:14.748Z,27.80
2023-04-28T10:48:57.196Z,27.70
2023-04-28T10:51:30.146Z,27.80
2023-04-28T10:54:20.385Z,27.60
2023-04-28T10:57:20.066Z,27.30
2023-04-28T10:59:49.285Z,27.60
2023-04-28T11:02:50.831Z,28.10
2023-04-28T11:05:20.568Z,28.10
2023-04-28T11:08:34.389Z,28.30
2023-04-28T11:11:20.758Z,28.90
2023-04-28T11:13:49.838Z,29.00
2023-04-28T11:16:19.931Z,29.30
2023-04-28T11:18:59.970Z,29.30
2023-04-28T11:21:29.289Z,29.20
2023-04-28T11:23:59.042Z,29.50
2023-04-28T11:26:29.476Z,28.90
2023-04-28T11:28:59.768Z,28.60
2023-04-28T11:31:28.880Z,28.40
2023-04-28T11:34:05.264Z,28.50
2023-04-28T11:36:36.503Z,28.00
2023-04-28T11:39:07.511Z,27.90
2023-04-28T11:41:37.968Z,28.50
2023-04-28T11:44:13.455Z,28.80
2023-04-28T11:46:51.157Z,29.20
2023-04-28T11:49:26.884Z,29.20
2023-04-28T11:51:55.602Z,29.40
2023-04-28T11:54:27.748Z,29.60
2023-04-28T11:57:01.059Z,29.20
2023-04-28T11:59:31.003Z,29.40
2023-04-28T12:02:00.215Z,29.20
2023-04-28T12:04:30.589Z,28.30
2023-04-28T12:07:06.987Z,28.20
2023-04-28T12:09:36.336Z,28.60
2023-04-28T12:12:07.255Z,28.80
2023-04-28T12:14:56.302Z,29.30
2023-04-28T12:17:28.526Z,29.90
2023-04-28T12:19:59.957Z,30.20
2023-04-28T12:22:28.445Z,30.20
2023-04-28T12:25:08.005Z,29.40
2023-04-28T12:27:40.399Z,29.20
2023-04-28T12:30:27.743Z,29.60
2023-04-28T12:32:57.640Z,29.10
2023-04-28T12:35:27.042Z,28.90
2023-04-28T12:37:56.146Z,28.90
2023-04-28T12:40:24.569Z,28.20
2023-04-28T12:42:57.209Z,28.00
2023-04-28T12:45:25.402Z,28.30
2023-04-28T12:47:53.634Z,28.50
2023-04-28T12:50:21.969Z,28.40
2023-04-28T12:52:50.284Z,28.50
2023-04-28T12:55:18.593Z,28.90
2023-04-28T12:57:46.766Z,28.40
2023-04-28T13:00:17.967Z,29.00
2023-04-28T13:02:46.605Z,29.40
2023-04-28T13:05:15.378Z,29.70
2023-04-28T13:07:44.017Z,29.30
2023-04-28T13:10:13.834Z,29.60
2023-04-28T13:12:42.419Z,29.50
2023-04-28T13:15:11.901Z,29.70
2023-04-28T13:17:41.507Z,30.10
2023-04-28T13:20:11.109Z,29.30
2023-04-28T13:22:39.978Z,29.20
2023-04-28T13:25:09.333Z,29.40
2023-04-28T13:27:37.853Z,29.20
2023-04-28T13:30:08.656Z,28.90
2023-04-28T13:32:36.954Z,28.80
2023-04-28T13:35:08.901Z,28.90
2023-04-28T13:37:42.449Z,29.50
2023-04-28T13:40:12.199Z,29.90
2023-04-28T13:42:40.387Z,29.40
2023-04-28T13:45:09.136Z,30.10
2023-04-28T13:47:37.361Z,29.90
2023-04-28T13:50:08.258Z,30.30
2023-04-28T13:52:36.464Z,30.30
2023-04-28T13:55:04.919Z,30.00
2023-04-28T13:57:33.158Z,30.10
2023-04-28T14:00:01.323Z,30.20
2023-04-28T14:02:38.187Z,29.90
2023-04-28T14:05:08.774Z,30.60
2023-04-28T14:07:37.014Z,30.70
2023-04-28T14:10:06.136Z,30.50
2023-04-28T14:12:34.415Z,30.90
2023-04-28T14:15:02.695Z,31.00
2023-04-28T14:17:31.004Z,31.00
2023-04-28T14:19:59.193Z,31.00
2023-04-28T14:22:31.769Z,30.30
2023-04-28T14:25:03.032Z,30.30
2023-04-28T14:27:31.242Z,30.70
2023-04-28T14:29:59.500Z,30.90
2023-04-28T14:32:27.734Z,31.00
2023-04-28T14:34:55.951Z,31.00
2023-04-28T14:37:24.297Z,31.10
2023-04-28T14:39:54.326Z,31.20
2023-04-28T14:42:22.800Z,31.10
2023-04-28T14:44:52.683Z,31.00
2023-04-28T14:47:22.242Z,31.10
2023-04-28T14:49:50.454Z,31.20
2023-04-28T14:52:18.704Z,30.70
2023-04-28T14:54:50.073Z,30.50
2023-04-28T14:57:22.570Z,29.80
2023-04-28T14:59:51.827Z,30.60
2023-04-28T15:02:21.634Z,30.80
2023-04-28T15:04:50.241Z,31.00
2023-04-28T15:07:20.680Z,31.10
2023-04-28T15:09:48.936Z,30.90
2023-04-28T15:12:17.085Z,31.00
2023-04-28T15:14:47.045Z,31.00
2023-04-28T15:17:15.365Z,31.00
2023-04-28T15:19:43.649Z,31.10
2023-04-28T15:22:11.941Z,31.10
2023-04-28T15:24:42.908Z,31.00
2023-04-28T15:27:11.474Z,31.00
2023-04-28T15:29:40.031Z,30.90
2023-04-28T15:32:09.595Z,30.80
2023-04-28T15:34:40.204Z,30.70
2023-04-28T15:37:43.248Z,30.80
2023-04-28T15:40:13.512Z,30.80
2023-04-28T15:42:44.906Z,30.90
2023-04-28T15:45:13.422Z,31.00
2023-04-28T15:47:45.059Z,30.90
2023-04-28T15:50:13.973Z,31.00
2023-04-28T15:52:45.898Z,31.00
2023-04-28T15:55:14.820Z,31.00
2023-04-28T15:57:43.320Z,30.90
2023-04-28T16:00:14.423Z,30.90
2023-04-28T16:02:45.090Z,30.70
2023-04-28T16:05:13.731Z,30.50
2023-04-28T16:07:41.987Z,30.40
2023-04-28T16:10:12.113Z,30.30
2023-04-28T16:12:42.846Z,30.20
2023-04-28T16:15:13.547Z,30.00
2023-04-28T16:17:44.306Z,30.00
2023-04-28T16:20:13.445Z,29.90
2023-04-28T16:22:42.457Z,29.90
2023-04-28T16:25:11.798Z,30.00
2023-04-28T16:27:41.452Z,30.00
2023-04-28T16:30:10.646Z,30.00
2023-04-28T16:32:40.952Z,30.00
2023-04-28T16:35:15.318Z,30.00
2023-04-28T16:37:44.074Z,30.00
2023-04-28T16:40:15.048Z,30.00
2023-04-28T16:42:44.467Z,30.00
2023-04-28T16:45:13.729Z,29.90
2023-04-28T16:47:43.608Z,29.70
2023-04-28T16:50:14.890Z,29.70
2023-04-28T16:52:43.264Z,29.80
2023-04-28T16:55:11.812Z,29.80
2023-04-28T16:57:41.821Z,29.70
2023-04-28T17:00:11.141Z,29.60
2023-04-28T17:02:39.433Z,29.50
2023-04-28T17:05:08.356Z,29.60
2023-04-28T17:07:37.910Z,29.50
2023-04-28T17:10:08.357Z,29.50
2023-04-28T17:12:36.574Z,29.20
2023-04-28T17:15:08.468Z,29.20
2023-04-28T17:17:37.294Z,28.90
2023-04-28T17:20:06.971Z,28.80
2023-04-28T17:22:35.521Z,28.60
2023-04-28T17:25:06.032Z,28.60
2023-04-28T17:27:34.188Z,28.60
2023-04-28T17:30:02.357Z,28.40
2023-04-28T17:32:33.271Z,28.30
2023-04-28T17:35:01.537Z,28.40
2023-04-28T17:37:32.759Z,28.40
2023-04-28T17:40:01.459Z,28.30
2023-04-28T17:42:32.564Z,28.30
2023-04-28T17:45:00.762Z,28.30
2023-04-28T17:47:28.937Z,28.30
2023-04-28T17:49:57.541Z,28.30
2023-04-28T17:52:25.920Z,28.10
2023-04-28T17:54:54.337Z,28.10
2023-04-28T17:57:22.481Z,27.80
2023-04-28T17:59:52.792Z,27.80
2023-04-28T18:02:21.792Z,27.90
2023-04-28T18:04:50.746Z,27.80
2023-04-28T18:07:19.220Z,27.80
2023-04-28T18:09:49.796Z,27.80
2023-04-28T18:12:18.082Z,27.80
2023-04-28T18:14:46.216Z,27.80
2023-04-28T18:17:15.892Z,27.80
2023-04-28T18:19:44.051Z,27.80
2023-04-28T18:22:12.275Z,27.80
2023-04-28T18:24:40.482Z,27.80
2023-04-28T18:27:09.184Z,27.80
2023-04-28T18:29:37.406Z,27.80
2023-04-28T18:32:05.647Z,27.70
2023-04-28T18:34:35.258Z,27.60
2023-04-28T18:37:03.446Z,27.40
2023-04-28T18:39:31.640Z,27.20
2023-04-28T18:42:00.228Z,27.20
2023-04-28T18:44:28.487Z,27.20
2023-04-28T18:46:57.054Z,27.10
2023-04-28T18:49:28.187Z,27.10
2023-04-28T18:52:01.192Z,27.10
2023-04-28T18:54:31.038Z,27.20
2023-04-28T18:56:59.656Z,27.20
2023-04-28T18:59:30.180Z,27.20
2023-04-28T19:02:00.891Z,27.00
2023-04-28T19:04:29.495Z,27.10
2023-04-28T19:07:03.045Z,27.10
2023-04-28T19:09:31.801Z,27.10
2023-04-28T19:12:00.086Z,27.10
2023-04-28T19:14:28.336Z,27.20
2023-04-28T19:16:56.710Z,27.10
2023-04-28T19:19:24.929Z,27.10
2023-04-28T19:21:53.139Z,27.10
2023-04-28T19:24:22.894Z,27.10
2023-04-28T19:26:51.708Z,27.00
2023-04-28T19:29:20.048Z,26.90
2023-04-28T19:31:48.858Z,26.80
2023-04-28T19:34:17.015Z,26.80
2023-04-28T19:36:45.347Z,26.60
2023-04-28T19:39:13.533Z,26.60
2023-04-28T19:41:48.120Z,26.50
2023-04-28T19:44:16.862Z,26.60
2023-04-28T19:46:46.328Z,26.60
2023-04-28T19:49:14.613Z,26.50
2023-04-28T19:51:42.750Z,26.40
2023-04-28T19:54:10.938Z,26.40
2023-04-28T19:56:39.271Z,26.30
2023-04-28T19:59:08.931Z,26.30
2023-04-28T20:01:41.570Z,26.40
2023-04-28T20:04:10.005Z,26.30
2023-04-28T20:06:38.470Z,26.30
2023-04-28T20:09:09.680Z,26.30
2023-04-28T20:11:38.420Z,26.40
2023-04-28T20:14:08.651Z,26.40
2023-04-28T20:16:36.856Z,26.20
2023-04-28T20:19:05.123Z,26.30
2023-04-28T20:21:35.007Z,26.40
2023-04-28T20:24:03.226Z,26.20
2023-04-28T20:26:31.637Z,26.30
2023-04-28T20:29:00.224Z,25.90
2023-04-28T20:31:29.848Z,26.00
2023-04-28T20:33:58.213Z,25.80
2023-04-28T20:36:27.244Z,26.00
2023-04-28T20:38:55.430Z,26.00
2023-04-28T20:41:23.912Z,26.00
2023-04-28T20:43:52.377Z,25.90
2023-04-28T20:46:20.910Z,25.40
2023-04-28T20:48:50.612Z,25.40
2023-04-28T20:51:18.839Z,24.90
2023-04-28T20:53:47.208Z,25.00
2023-04-28T20:56:15.753Z,24.90
2023-04-28T20:58:44.027Z,24.70
2023-04-28T21:01:12.194Z,24.70
2023-04-28T21:03:41.298Z,24.90
2023-04-28T21:06:10.917Z,24.90
2023-04-28T21:08:40.658Z,25.10
2023-04-28T21:11:13.684Z,24.80
2023-04-28T21:13:43.013Z,24.30
2023-04-28T21:16:18.568Z,24.20
2023-04-28T21:18:50.005Z,24.00
2023-04-28T21:21:19.571Z,23.90
2023-04-28T21:23:47.810Z,24.00
2023-04-28T21:26:15.972Z,23.80
2023-04-28T21:28:44.371Z,23.40
2023-04-28T21:31:13.622Z,23.20
2023-04-28T21:33:41.810Z,22.90
2023-04-28T21:36:10.173Z,23.00
2023-04-28T21:38:39.799Z,23.10
2023-04-28T21:41:08.767Z,23.00
2023-04-28T21:43:36.989Z,22.80
2023-04-28T21:46:05.287Z,22.90
2023-04-28T21:48:33.458Z,23.00
2023-04-28T21:51:02.251Z,23.00
2023-04-28T21:53:30.494Z,22.70
2023-04-28T21:56:03.309Z,22.40
2023-04-28T21:58:31.557Z,22.50
2023-04-28T22:01:00.841Z,22.60
2023-04-28T22:03:29.535Z,22.70
2023-04-28T22:05:58.167Z,22.70
2023-04-28T22:08:30.002Z,22.40
2023-04-28T22:10:59.756Z,22.50
2023-04-28T22:13:28.106Z,22.20
2023-04-28T22:15:56.768Z,22.20
2023-04-28T22:18:24.994Z,22.10
2023-04-28T22:20:53.268Z,22.10
2023-04-28T22:23:21.447Z,22.40
2023-04-28T22:25:49.671Z,22.30
2023-04-28T22:28:22.630Z,22.40
2023-04-28T22:30:51.600Z,22.50
2023-04-28T22:33:22.825Z,22.50
2023-04-28T22:35:51.378Z,22.50
2023-04-28T22:38:19.650Z,22.60
2023-04-28T22:40:48.093Z,22.30
2023-04-28T22:43:16.704Z,22.50
2023-04-28T22:45:46.767Z,22.70
2023-04-28T22:48:15.132Z,22.60
2023-04-28T22:50:43.546Z,22.60
2023-04-28T22:53:11.732Z,22.10
2023-04-28T22:55:39.918Z,22.50
2023-04-28T22:58:08.112Z,22.60
2023-04-28T23:00:36.617Z,22.50
2023-04-28T23:03:06.292Z,22.50
2023-04-28T23:05:38.268Z,22.30
2023-04-28T23:08:06.729Z,22.30
2023-04-28T23:10:34.907Z,22.30
2023-04-28T23:13:03.105Z,22.10
2023-04-28T23:15:31.270Z,22.40
2023-04-28T23:18:01.619Z,22.60
2023-04-28T23:20:31.260Z,22.80
2023-04-28T23:22:59.474Z,22.60
2023-04-28T23:25:27.696Z,22.20
2023-04-28T23:27:55.885Z,22.50
2023-04-28T23:30:24.343Z,22.60
2023-04-28T23:32:52.626Z,22.60
2023-04-28T23:35:20.823Z,22.90
2023-04-28T23:37:50.363Z,21.50
2023-04-28T23:40:20.816Z,22.10
2023-04-28T23:42:49.017Z,21.70
2023-04-28T23:45:18.581Z,21.00
2023-04-28T23:47:48.260Z,21.10
2023-04-28T23:50:16.583Z,21.60
2023-04-28T23:52:45.010Z,21.40
2023-04-28T23:55:14.587Z,21.50
2023-04-28T23:57:42.870Z,21.10
